createdAt,value
2019-01-12T00:00:11.729Z,13.77
2019-01-12T00:02:40.163Z,14.30
2019-01-12T00:05:08.976Z,15.10
2019-01-12T00:07:37.407Z,15.07
2019-01-12T00:10:08.382Z,13.50
2019-01-12T00:12:36.824Z,15.43
2019-01-12T00:15:07.002Z,14.00
2019-01-12T00:17:35.449Z,13.73
2019-01-12T00:20:05.945Z,13.90
2019-01-12T00:22:34.386Z,14.63
2019-01-12T00:25:02.928Z,14.47
2019-01-12T00:27:31.348Z,14.37
2019-01-12T00:29:59.795Z,12.77
2019-01-12T00:32:28.228Z,12.37
2019-01-12T00:34:56.683Z,16.23
2019-01-12T00:37:25.107Z,15.17
2019-01-12T00:39:53.574Z,14.23
2019-01-12T00:42:22.018Z,12.17
2019-01-12T00:44:50.563Z,11.23
2019-01-12T00:47:19.062Z,11.60
2019-01-12T00:49:47.561Z,10.43
2019-01-12T00:52:16.071Z,9.93
2019-01-12T00:54:44.531Z,10.40
2019-01-12T00:57:12.955Z,9.70
2019-01-12T00:59:41.383Z,8.57
2019-01-12T01:02:09.837Z,9.90
2019-01-12T01:04:38.247Z,10.23
2019-01-12T01:07:06.772Z,9.67
2019-01-12T01:09:35.216Z,9.80
2019-01-12T01:12:03.899Z,10.60
2019-01-12T01:14:32.323Z,8.73
2019-01-12T01:17:00.839Z,8.47
2019-01-12T01:19:29.336Z,8.97
2019-01-12T01:21:57.819Z,9.47
2019-01-12T01:24:26.327Z,8.73
2019-01-12T01:26:54.778Z,9.40
2019-01-12T01:29:23.195Z,9.97
2019-01-12T01:31:51.615Z,9.87
2019-01-12T01:34:20.060Z,9.03
2019-01-12T01:36:48.520Z,9.07
2019-01-12T01:39:17.010Z,8.67
2019-01-12T01:41:45.481Z,8.73
2019-01-12T01:44:13.893Z,9.03
2019-01-12T01:46:42.370Z,9.57
2019-01-12T01:49:10.795Z,9.13
2019-01-12T01:51:39.242Z,9.37
2019-01-12T01:54:07.820Z,10.17
2019-01-12T01:56:36.261Z,8.83
2019-01-12T01:59:04.801Z,10.00
2019-01-12T02:01:33.215Z,9.23
2019-01-12T02:04:01.740Z,9.53
2019-01-12T02:06:30.171Z,10.30
2019-01-12T02:08:58.615Z,9.47
2019-01-12T02:11:27.113Z,10.30
2019-01-12T02:13:55.559Z,9.67
2019-01-12T02:16:23.982Z,11.30
2019-01-12T02:18:52.428Z,11.03
2019-01-12T02:21:20.872Z,11.33
2019-01-12T02:23:49.318Z,11.00
2019-01-12T02:26:17.760Z,10.60
2019-01-12T02:28:46.225Z,11.47
2019-01-12T02:31:14.647Z,10.43
2019-01-12T02:33:43.071Z,11.03
2019-01-12T02:36:11.555Z,11.17
2019-01-12T02:38:39.995Z,11.07
2019-01-12T02:41:08.460Z,11.63
2019-01-12T02:43:37.115Z,11.47
2019-01-12T02:46:05.699Z,10.53
2019-01-12T02:48:34.251Z,12.63
2019-01-12T02:51:02.876Z,11.43
2019-01-12T02:53:31.519Z,14.07
2019-01-12T02:56:00.147Z,11.93
2019-01-12T02:58:28.655Z,12.20
2019-01-12T03:00:57.241Z,12.00
2019-01-12T03:03:25.652Z,12.80
2019-01-12T03:05:54.107Z,13.47
2019-01-12T03:08:22.549Z,13.47
2019-01-12T03:10:50.995Z,14.47
2019-01-12T03:13:19.427Z,15.77
2019-01-12T03:15:47.880Z,14.70
2019-01-12T03:18:16.317Z,14.00
2019-01-12T03:20:44.852Z,17.07
2019-01-12T03:23:13.309Z,17.30
2019-01-12T03:25:41.781Z,18.83
2019-01-12T03:28:10.229Z,17.37
2019-01-12T03:30:38.669Z,18.10
2019-01-12T03:33:07.104Z,18.10
2019-01-12T03:35:35.523Z,15.60
2019-01-12T03:38:04.117Z,16.17
2019-01-12T03:40:32.616Z,15.27
2019-01-12T03:43:01.064Z,16.47
2019-01-12T03:45:29.663Z,17.87
2019-01-12T03:47:58.122Z,16.73
2019-01-12T03:50:26.539Z,17.67
2019-01-12T03:52:55.040Z,16.53
2019-01-12T03:55:25.785Z,16.80
2019-01-12T03:57:53.772Z,17.37
2019-01-12T04:00:22.748Z,17.03
2019-01-12T04:02:51.358Z,16.77
2019-01-12T04:05:19.917Z,17.47
2019-01-12T04:07:48.418Z,15.80
2019-01-12T04:10:16.896Z,15.63
2019-01-12T04:12:45.399Z,19.57
2019-01-12T04:15:14.251Z,17.13
2019-01-12T04:17:42.746Z,19.83
2019-01-12T04:20:16.245Z,18.43
2019-01-12T04:22:44.798Z,19.80
2019-01-12T04:25:13.327Z,18.97
2019-01-12T04:27:41.749Z,21.60
2019-01-12T04:30:13.028Z,19.80
2019-01-12T04:32:41.451Z,20.90
2019-01-12T04:35:09.984Z,20.63
2019-01-12T04:37:38.419Z,20.43
2019-01-12T04:40:10.286Z,19.23
2019-01-12T04:42:38.722Z,19.13
2019-01-12T04:45:09.209Z,19.03
2019-01-12T04:47:37.774Z,19.30
2019-01-12T04:50:11.700Z,18.13
2019-01-12T04:52:40.140Z,18.47
2019-01-12T04:55:08.828Z,17.77
2019-01-12T04:57:37.329Z,16.37
2019-01-12T05:00:11.827Z,17.70
2019-01-12T05:02:40.322Z,15.60
2019-01-12T05:05:09.002Z,15.77
2019-01-12T05:07:37.436Z,16.57
2019-01-12T05:10:08.711Z,16.07
2019-01-12T05:12:37.155Z,16.53
2019-01-12T05:15:08.528Z,14.53
2019-01-12T05:17:37.049Z,15.07
2019-01-12T05:20:14.066Z,16.13
2019-01-12T05:22:42.524Z,17.57
2019-01-12T05:25:11.097Z,15.47
2019-01-12T05:27:39.536Z,15.63
2019-01-12T05:30:17.263Z,14.77
2019-01-12T05:32:45.886Z,15.20
2019-01-12T05:35:14.330Z,15.17
2019-01-12T05:37:42.863Z,14.23
2019-01-12T05:40:11.724Z,14.60
2019-01-12T05:42:40.186Z,15.90
2019-01-12T05:45:10.660Z,14.53
2019-01-12T05:47:39.123Z,14.80
2019-01-12T05:50:09.897Z,13.23
2019-01-12T05:52:38.328Z,14.30
2019-01-12T05:55:07.920Z,14.87
2019-01-12T05:57:36.369Z,15.67
2019-01-12T06:00:16.570Z,18.20
2019-01-12T06:02:45.154Z,17.17
2019-01-12T06:05:13.724Z,15.73
2019-01-12T06:07:42.246Z,14.87
2019-01-12T06:10:12.116Z,16.20
2019-01-12T06:12:40.574Z,15.23
2019-01-12T06:15:11.214Z,12.73
2019-01-12T06:17:39.711Z,15.30
2019-01-12T06:20:13.457Z,13.97
2019-01-12T06:22:42.044Z,13.90
2019-01-12T06:25:10.612Z,15.50
2019-01-12T06:27:39.179Z,12.40
2019-01-12T06:30:10.947Z,12.17
2019-01-12T06:32:39.376Z,14.37
2019-01-12T06:35:08.059Z,12.03
2019-01-12T06:37:36.491Z,11.30
2019-01-12T06:40:08.016Z,12.27
2019-01-12T06:42:36.489Z,11.40
2019-01-12T06:45:08.302Z,12.60
2019-01-12T06:47:36.734Z,11.97
2019-01-12T06:50:08.206Z,10.07
2019-01-12T06:52:36.633Z,10.50
2019-01-12T06:55:07.518Z,9.50
2019-01-12T06:57:35.936Z,10.80
2019-01-12T07:00:07.468Z,9.47
2019-01-12T07:02:35.907Z,9.77
2019-01-12T07:05:05.725Z,8.47
2019-01-12T07:07:34.142Z,8.70
2019-01-12T07:10:03.370Z,8.43
2019-01-12T07:12:31.784Z,8.77
2019-01-12T07:15:00.314Z,9.60
2019-01-12T07:17:28.731Z,8.87
2019-01-12T07:19:57.179Z,9.53
2019-01-12T07:22:25.704Z,9.83
2019-01-12T07:24:54.140Z,9.63
2019-01-12T07:27:22.594Z,9.63
2019-01-12T07:29:51.024Z,9.73
2019-01-12T07:32:19.474Z,10.50
2019-01-12T07:34:47.912Z,10.47
2019-01-12T07:37:16.350Z,10.70
2019-01-12T07:39:44.786Z,10.27
2019-01-12T07:42:13.243Z,10.37
2019-01-12T07:44:41.681Z,11.07
2019-01-12T07:47:10.120Z,12.03
2019-01-12T07:49:38.551Z,12.37
2019-01-12T07:52:07.000Z,12.37
2019-01-12T07:54:35.512Z,14.13
2019-01-12T07:57:04.131Z,18.23
2019-01-12T07:59:32.559Z,15.77
2019-01-12T08:02:01.018Z,29.93
2019-01-12T08:04:29.519Z,14.63
2019-01-12T08:06:57.982Z,17.53
2019-01-12T08:09:26.600Z,19.13
2019-01-12T08:11:55.083Z,15.33
2019-01-12T08:14:23.605Z,16.03
2019-01-12T08:16:52.219Z,16.93
2019-01-12T08:19:20.642Z,18.70
2019-01-12T08:21:49.092Z,19.27
2019-01-12T08:24:17.520Z,19.57
2019-01-12T08:26:45.991Z,18.90
2019-01-12T08:29:14.483Z,18.23
2019-01-12T08:31:42.911Z,19.93
2019-01-12T08:34:11.374Z,19.60
2019-01-12T08:36:39.798Z,18.37
2019-01-12T08:39:08.250Z,19.33
2019-01-12T08:41:36.679Z,18.60
2019-01-12T08:44:05.256Z,18.07
2019-01-12T08:46:33.679Z,20.07
2019-01-12T08:49:02.111Z,18.80
2019-01-12T08:51:30.626Z,18.40
2019-01-12T08:53:59.146Z,16.10
2019-01-12T08:56:27.601Z,15.97
2019-01-12T08:58:56.031Z,17.17
2019-01-12T09:01:24.482Z,16.77
2019-01-12T09:03:52.925Z,17.03
2019-01-12T09:06:21.347Z,16.30
2019-01-12T09:08:49.786Z,17.00
2019-01-12T09:11:18.307Z,18.40
2019-01-12T09:13:46.738Z,17.07
2019-01-12T09:16:15.192Z,18.27
2019-01-12T09:18:43.627Z,17.87
2019-01-12T09:21:12.087Z,18.40
2019-01-12T09:23:40.510Z,19.30
2019-01-12T09:26:09.047Z,18.63
2019-01-12T09:28:37.474Z,18.73
2019-01-12T09:31:05.931Z,18.90
2019-01-12T09:33:34.416Z,19.63
2019-01-12T09:36:02.939Z,22.50
2019-01-12T09:38:31.359Z,17.40
2019-01-12T09:40:59.963Z,18.87
2019-01-12T09:43:28.385Z,17.00
2019-01-12T09:45:56.862Z,17.03
2019-01-12T09:48:25.303Z,18.63
2019-01-12T09:50:53.731Z,19.33
2019-01-12T09:53:22.251Z,17.33
2019-01-12T09:55:50.719Z,16.33
2019-01-12T09:58:19.163Z,16.37
2019-01-12T10:00:47.684Z,15.10
2019-01-12T10:03:16.138Z,15.60
2019-01-12T10:05:44.570Z,16.80
2019-01-12T10:08:13.029Z,16.97
2019-01-12T10:10:41.464Z,16.77
2019-01-12T10:13:09.919Z,16.03
2019-01-12T10:15:38.443Z,17.47
2019-01-12T10:18:06.887Z,16.10
2019-01-12T10:20:35.317Z,14.90
2019-01-12T10:23:03.835Z,15.33
2019-01-12T10:25:32.299Z,15.47
2019-01-12T10:28:00.731Z,16.20
2019-01-12T10:30:29.196Z,15.63
2019-01-12T10:32:57.702Z,14.97
2019-01-12T10:35:26.304Z,15.80
2019-01-12T10:37:54.959Z,16.10
2019-01-12T10:40:23.507Z,15.17
2019-01-12T10:42:52.167Z,16.47
2019-01-12T10:45:22.183Z,15.90
2019-01-12T10:47:50.839Z,15.23
2019-01-12T10:50:25.356Z,15.17
2019-01-12T10:52:53.871Z,18.73
2019-01-12T10:55:22.331Z,15.93
2019-01-12T10:57:50.749Z,15.70
2019-01-12T11:00:30.871Z,15.73
2019-01-12T11:02:59.440Z,15.63
2019-01-12T11:05:27.975Z,16.57
2019-01-12T11:07:56.493Z,15.87
2019-01-12T11:10:25.010Z,16.57
2019-01-12T11:12:53.599Z,15.67
2019-01-12T11:15:22.474Z,15.97
2019-01-12T11:17:51.058Z,14.57
2019-01-12T11:20:19.623Z,15.53
2019-01-12T11:22:48.509Z,15.33
2019-01-12T11:25:17.175Z,15.63
2019-01-12T11:27:45.695Z,15.13
2019-01-12T11:30:16.911Z,14.57
2019-01-12T11:32:45.546Z,15.20
2019-01-12T11:35:14.173Z,14.37
2019-01-12T11:37:42.866Z,14.37
2019-01-12T11:40:16.668Z,15.37
2019-01-12T11:42:45.259Z,15.17
2019-01-12T11:45:14.423Z,15.13
2019-01-12T11:47:42.966Z,14.50
2019-01-12T11:50:14.277Z,15.33
2019-01-12T11:52:43.555Z,14.80
2019-01-12T11:55:13.157Z,14.50
2019-01-12T11:57:41.597Z,14.03
2019-01-12T12:00:21.662Z,14.27
2019-01-12T12:02:50.274Z,13.30
2019-01-12T12:05:18.946Z,13.67
2019-01-12T12:07:47.490Z,13.60
2019-01-12T12:10:17.003Z,13.77
2019-01-12T12:12:45.648Z,14.07
2019-01-12T12:15:16.146Z,14.33
2019-01-12T12:17:44.718Z,13.97
2019-01-12T12:20:16.279Z,14.50
2019-01-12T12:22:44.867Z,14.37
2019-01-12T12:25:16.831Z,14.73
2019-01-12T12:27:45.403Z,13.37
2019-01-12T12:30:19.682Z,13.23
2019-01-12T12:32:48.185Z,12.67
2019-01-12T12:35:16.702Z,13.60
2019-01-12T12:37:45.358Z,13.00
2019-01-12T12:40:17.083Z,12.70
2019-01-12T12:42:45.537Z,14.10
2019-01-12T12:45:16.793Z,13.70
2019-01-12T12:47:45.393Z,13.63
2019-01-12T12:50:15.673Z,14.70
2019-01-12T12:52:44.134Z,15.40
2019-01-12T12:55:14.931Z,15.53
2019-01-12T12:57:43.740Z,15.67
2019-01-12T13:00:23.735Z,15.53
2019-01-12T13:02:52.242Z,16.27
2019-01-12T13:05:20.704Z,15.97
2019-01-12T13:07:49.213Z,15.20
2019-01-12T13:10:20.456Z,16.97
2019-01-12T13:12:49.016Z,17.30
2019-01-12T13:15:17.637Z,17.30
2019-01-12T13:17:46.278Z,17.03
2019-01-12T13:20:16.847Z,17.93
2019-01-12T13:22:45.658Z,17.50
2019-01-12T13:25:14.815Z,14.87
2019-01-12T13:27:43.412Z,15.03
2019-01-12T13:30:14.963Z,15.97
2019-01-12T13:32:43.495Z,15.43
2019-01-12T13:35:12.166Z,14.33
2019-01-12T13:37:40.815Z,15.40
2019-01-12T13:40:15.269Z,14.53
2019-01-12T13:42:43.786Z,15.63
2019-01-12T13:45:15.507Z,15.07
2019-01-12T13:47:44.052Z,15.13
2019-01-12T13:50:15.020Z,14.00
2019-01-12T13:52:43.535Z,12.03
2019-01-12T13:55:13.714Z,12.67
2019-01-12T13:57:47.490Z,13.20
2019-01-12T14:00:18.566Z,12.17
2019-01-12T14:02:47.599Z,11.07
2019-01-12T14:05:16.209Z,10.93
2019-01-12T14:07:44.666Z,10.30
2019-01-12T14:10:16.546Z,10.10
2019-01-12T14:12:45.124Z,9.80
2019-01-12T14:15:18.300Z,9.70
2019-01-12T14:17:47.227Z,10.10
2019-01-12T14:20:18.828Z,8.47
2019-01-12T14:22:47.259Z,8.10
2019-01-12T14:25:15.831Z,10.10
2019-01-12T14:27:44.267Z,10.13
2019-01-12T14:30:16.157Z,8.97
2019-01-12T14:32:44.660Z,10.00
2019-01-12T14:35:15.137Z,8.77
2019-01-12T14:37:43.710Z,9.80
2019-01-12T14:40:14.840Z,10.17
2019-01-12T14:42:43.415Z,7.70
2019-01-12T14:45:15.092Z,7.70
2019-01-12T14:47:43.593Z,7.40
2019-01-12T14:50:12.291Z,9.80
2019-01-12T14:52:40.908Z,8.60
2019-01-12T14:55:12.391Z,9.40
2019-01-12T14:57:40.807Z,6.50
2019-01-12T15:00:20.298Z,8.07
2019-01-12T15:02:51.706Z,8.27
2019-01-12T15:05:22.302Z,9.20
2019-01-12T15:07:50.853Z,6.83
2019-01-12T15:10:20.795Z,6.00
2019-01-12T15:12:50.287Z,5.87
2019-01-12T15:15:21.272Z,6.23
2019-01-12T15:17:49.857Z,5.47
2019-01-12T15:20:26.252Z,5.63
2019-01-12T15:22:54.706Z,6.13
2019-01-12T15:25:23.167Z,5.10
2019-01-12T15:27:51.659Z,5.70
2019-01-12T15:30:25.146Z,9.27
2019-01-12T15:32:53.758Z,6.40
2019-01-12T15:35:23.726Z,6.27
2019-01-12T15:37:52.204Z,7.40
2019-01-12T15:40:21.858Z,7.10
2019-01-12T15:42:50.316Z,6.13
2019-01-12T15:45:21.260Z,6.40
2019-01-12T15:47:49.870Z,7.30
2019-01-12T15:50:20.228Z,6.77
2019-01-12T15:52:48.758Z,6.77
2019-01-12T15:55:17.348Z,7.60
2019-01-12T15:57:45.946Z,7.63
2019-01-12T16:00:20.347Z,7.10
2019-01-12T16:02:48.784Z,6.83
2019-01-12T16:05:17.375Z,7.53
2019-01-12T16:07:45.915Z,7.27
2019-01-12T16:10:15.627Z,8.07
2019-01-12T16:12:44.462Z,7.07
2019-01-12T16:15:21.096Z,7.50
2019-01-12T16:17:49.779Z,8.47
2019-01-12T16:20:20.795Z,8.10
2019-01-12T16:22:49.255Z,8.87
2019-01-12T16:25:17.713Z,7.80
2019-01-12T16:27:46.143Z,10.77
2019-01-12T16:30:17.492Z,7.80
2019-01-12T16:32:46.067Z,7.73
2019-01-12T16:35:14.853Z,7.80
2019-01-12T16:37:43.664Z,7.23
2019-01-12T16:40:15.184Z,7.60
2019-01-12T16:42:43.673Z,7.50
2019-01-12T16:45:12.467Z,7.30
2019-01-12T16:47:40.993Z,8.50
2019-01-12T16:50:09.519Z,7.10
2019-01-12T16:52:37.967Z,7.50
2019-01-12T16:55:09.523Z,7.63
2019-01-12T16:57:38.015Z,8.20
2019-01-12T17:00:12.040Z,8.33
2019-01-12T17:02:40.483Z,9.60
2019-01-12T17:05:09.079Z,7.77
2019-01-12T17:07:37.583Z,7.87
2019-01-12T17:10:09.123Z,10.50
2019-01-12T17:12:37.578Z,8.33
2019-01-12T17:15:08.951Z,10.20
2019-01-12T17:17:37.434Z,9.93
2019-01-12T17:20:08.973Z,10.37
2019-01-12T17:22:37.409Z,10.33
2019-01-12T17:25:07.096Z,12.43
2019-01-12T17:27:35.647Z,11.83
2019-01-12T17:30:06.321Z,11.23
2019-01-12T17:32:34.794Z,10.90
2019-01-12T17:35:03.468Z,13.17
2019-01-12T17:37:31.908Z,12.03
2019-01-12T17:40:00.412Z,12.77
2019-01-12T17:42:28.877Z,12.63
2019-01-12T17:44:57.308Z,13.17
2019-01-12T17:47:25.765Z,15.03
2019-01-12T17:49:54.205Z,15.90
2019-01-12T17:52:22.691Z,13.47
2019-01-12T17:54:51.192Z,15.03
2019-01-12T17:57:19.648Z,14.03
2019-01-12T17:59:48.166Z,15.80
2019-01-12T18:02:16.630Z,17.20
2019-01-12T18:04:45.072Z,15.47
2019-01-12T18:07:13.538Z,14.33
2019-01-12T18:09:42.046Z,14.07
2019-01-12T18:12:10.499Z,14.40
2019-01-12T18:14:38.953Z,14.50
2019-01-12T18:17:07.389Z,14.83
2019-01-12T18:19:35.877Z,15.20
2019-01-12T18:22:04.450Z,15.63
2019-01-12T18:24:32.916Z,16.33
2019-01-12T18:27:01.429Z,16.73
2019-01-12T18:29:29.919Z,17.43
2019-01-12T18:31:58.448Z,14.27
2019-01-12T18:34:26.916Z,15.77
2019-01-12T18:36:55.334Z,15.07
2019-01-12T18:39:23.811Z,15.83
2019-01-12T18:41:52.252Z,17.67
2019-01-12T18:44:20.788Z,14.23
2019-01-12T18:46:49.321Z,17.83
2019-01-12T18:49:17.833Z,15.90
2019-01-12T18:51:46.419Z,13.30
2019-01-12T18:54:14.884Z,11.33
2019-01-12T18:56:43.434Z,13.60
2019-01-12T18:59:11.906Z,13.77
2019-01-12T19:01:40.355Z,13.63
2019-01-12T19:04:08.811Z,14.63
2019-01-12T19:06:37.343Z,15.63
2019-01-12T19:09:08.113Z,10.97
2019-01-12T19:11:36.610Z,11.57
2019-01-12T19:14:05.197Z,7.80
2019-01-12T19:16:33.643Z,9.30
2019-01-12T19:19:02.076Z,9.83
2019-01-12T19:21:30.535Z,9.40
2019-01-12T19:23:58.987Z,8.93
2019-01-12T19:26:27.547Z,9.23
2019-01-12T19:28:55.977Z,7.57
2019-01-12T19:31:24.516Z,6.87
2019-01-12T19:33:52.931Z,7.43
2019-01-12T19:36:21.419Z,4.90
2019-01-12T19:38:49.907Z,4.83
2019-01-12T19:41:18.350Z,3.80
2019-01-12T19:43:46.778Z,3.93
2019-01-12T19:46:15.220Z,4.23
2019-01-12T19:48:43.711Z,4.80
2019-01-12T19:51:12.156Z,3.97
2019-01-12T19:53:40.597Z,5.53
2019-01-12T19:56:09.067Z,5.37
2019-01-12T19:58:37.591Z,6.50
2019-01-12T20:01:06.101Z,8.07
2019-01-12T20:03:34.564Z,6.90
2019-01-12T20:06:03.015Z,6.90
2019-01-12T20:08:31.535Z,8.93
2019-01-12T20:10:59.960Z,8.27
2019-01-12T20:13:30.373Z,11.30
2019-01-12T20:15:58.575Z,10.17
2019-01-12T20:18:27.103Z,10.33
2019-01-12T20:20:55.618Z,11.27
2019-01-12T20:23:24.077Z,11.80
2019-01-12T20:25:52.505Z,13.20
2019-01-12T20:28:20.990Z,12.53
2019-01-12T20:30:52.549Z,13.10
2019-01-12T20:33:29.591Z,12.53
2019-01-12T20:36:23.611Z,11.77
2019-01-12T20:39:01.112Z,12.17
2019-01-12T20:41:35.319Z,11.87
2019-01-12T20:44:26.300Z,12.27
2019-01-12T20:47:03.643Z,10.93
2019-01-12T20:49:35.193Z,11.67
2019-01-12T20:52:12.196Z,12.93
2019-01-12T20:54:46.667Z,11.20
2019-01-12T20:57:21.034Z,10.40
2019-01-12T21:00:01.326Z,13.97
2019-01-12T21:02:53.732Z,11.93
2019-01-12T21:05:27.750Z,10.43
2019-01-12T21:08:10.807Z,9.00
2019-01-12T21:10:48.250Z,8.43
2019-01-12T21:13:36.235Z,9.87
2019-01-12T21:16:07.762Z,8.10
2019-01-12T21:18:36.199Z,8.60
2019-01-12T21:21:04.791Z,9.20
2019-01-12T21:23:33.230Z,8.97
2019-01-12T21:26:01.761Z,8.10
2019-01-12T21:28:30.242Z,7.23
2019-01-12T21:30:58.801Z,8.07
2019-01-12T21:33:28.892Z,6.80
2019-01-12T21:35:57.322Z,7.10
2019-01-12T21:38:25.782Z,6.57
2019-01-12T21:40:54.229Z,6.93
2019-01-12T21:43:22.672Z,6.17
2019-01-12T21:45:51.095Z,5.20
2019-01-12T21:48:19.610Z,5.63
2019-01-12T21:50:48.081Z,5.90
2019-01-12T21:53:16.539Z,5.97
2019-01-12T21:55:44.994Z,6.13
2019-01-12T21:58:13.451Z,5.70
2019-01-12T22:00:41.972Z,6.60
2019-01-12T22:03:10.420Z,6.00
2019-01-12T22:05:38.924Z,5.50
2019-01-12T22:08:07.581Z,5.80
2019-01-12T22:10:36.085Z,6.07
2019-01-12T22:13:04.692Z,6.00
2019-01-12T22:15:33.105Z,6.33
2019-01-12T22:18:01.577Z,7.33
2019-01-12T22:20:30.019Z,8.20
2019-01-12T22:22:58.448Z,9.13
2019-01-12T22:25:26.992Z,9.30
2019-01-12T22:27:55.418Z,8.67
2019-01-12T22:30:23.924Z,10.67
2019-01-12T22:32:52.502Z,10.87
2019-01-12T22:35:20.951Z,12.13
2019-01-12T22:37:49.374Z,11.77
2019-01-12T22:40:19.574Z,10.40
2019-01-12T22:42:48.175Z,10.37
2019-01-12T22:45:16.972Z,11.80
2019-01-12T22:47:45.642Z,9.77
2019-01-12T22:50:15.951Z,10.70
2019-01-12T22:52:44.911Z,11.57
2019-01-12T22:55:14.291Z,13.07
2019-01-12T22:57:42.987Z,12.13
2019-01-12T23:00:32.499Z,12.93
2019-01-12T23:03:04.108Z,10.67
2019-01-12T23:05:32.640Z,10.60
2019-01-12T23:08:01.071Z,10.97
2019-01-12T23:10:29.573Z,11.50
2019-01-12T23:12:58.036Z,12.27
2019-01-12T23:15:26.459Z,11.83
2019-01-12T23:17:54.908Z,10.97
2019-01-12T23:20:23.399Z,13.67
2019-01-12T23:22:51.941Z,11.93
2019-01-12T23:25:23.515Z,13.60
2019-01-12T23:27:52.061Z,13.10
2019-01-12T23:30:20.557Z,15.57
2019-01-12T23:32:49.060Z,13.30
2019-01-12T23:35:17.652Z,14.70
2019-01-12T23:37:46.150Z,16.53
2019-01-12T23:40:15.423Z,15.03
2019-01-12T23:42:44.185Z,15.27
2019-01-12T23:45:14.143Z,14.33
2019-01-12T23:47:42.675Z,17.03
2019-01-12T23:50:12.379Z,16.27
2019-01-12T23:52:40.963Z,14.63
2019-01-12T23:55:09.727Z,17.50
2019-01-12T23:57:38.461Z,17.27
